Terminal Aerodrome Forecast
Issued by NWS

Home | Current Version | Previous Version | Text Only | Print | Product List | Glossary On
Versions: 1 2 3 4 5 6 7 8 9 10 11 12 13 14 15 16 17 18 19
000
FTUS43 KDLH 242300
TAFHIB
TAF
KHIB 242332Z 2500/2524 00000KT P6SM -SN BKN011 OVC025
      TEMPO 2501/2505 5SM -SN BR OVC008
     FM250500 VRB03KT 6SM -SN BR OVC007
     FM251000 VRB03KT 6SM -FZDZ OVC008
     FM251700 26004KT P6SM OVC015
     FM252300 33004KT P6SM OVC015=

USA.gov is the U.S. government's official web portal to all federal, state and local government web resources and services.